createdAt,value
2022-12-29T00:03:53.077Z,64.49
2022-12-29T00:08:57.663Z,68.57
2022-12-29T00:14:00.584Z,62.60
2022-12-29T00:19:04.189Z,60.45
2022-12-29T00:24:11.241Z,60.29
2022-12-29T00:29:14.205Z,61.08
2022-12-29T00:34:17.050Z,60.27
2022-12-29T00:39:21.931Z,61.48
2022-12-29T00:44:24.766Z,58.89
2022-12-29T00:49:27.610Z,59.28
2022-12-29T00:54:32.877Z,64.60
2022-12-29T00:59:37.057Z,63.65
2022-12-29T01:04:40.015Z,60.25
2022-12-29T01:09:44.547Z,68.72
2022-12-29T01:14:47.397Z,68.85
2022-12-29T01:19:50.255Z,68.41
2022-12-29T01:24:54.791Z,69.98
2022-12-29T01:29:57.641Z,70.52
2022-12-29T01:35:00.465Z,69.58
2022-12-29T01:40:05.379Z,66.90
2022-12-29T01:45:11.269Z,69.53
2022-12-29T01:50:16.311Z,74.58
2022-12-29T01:55:21.278Z,76.19
2022-12-29T02:00:24.119Z,75.31
2022-12-29T02:05:29.686Z,75.77
2022-12-29T02:10:36.341Z,75.07
2022-12-29T02:15:47.161Z,77.52
2022-12-29T02:21:08.261Z,77.48
2022-12-29T02:26:31.658Z,79.57
2022-12-29T02:31:41.660Z,78.71
2022-12-29T02:36:46.875Z,78.24
2022-12-29T02:41:52.729Z,77.40
2022-12-29T02:47:02.196Z,75.78
2022-12-29T02:52:07.307Z,79.50
2022-12-29T02:57:12.314Z,81.05
2022-12-29T03:02:27.472Z,82.08
2022-12-29T03:07:35.812Z,81.55
2022-12-29T03:12:43.730Z,81.57
2022-12-29T03:17:53.361Z,81.79
2022-12-29T03:22:59.988Z,82.10
2022-12-29T03:28:04.077Z,81.95
2022-12-29T03:33:10.482Z,80.28
2022-12-29T03:38:15.592Z,81.88
2022-12-29T03:43:18.914Z,81.32
2022-12-29T03:48:23.470Z,76.73
2022-12-29T03:53:26.427Z,76.89
2022-12-29T03:58:29.252Z,77.55
2022-12-29T04:03:33.825Z,78.75
2022-12-29T04:08:37.453Z,80.10
2022-12-29T04:13:40.314Z,81.17
2022-12-29T04:18:44.807Z,81.09
2022-12-29T04:23:47.722Z,83.33
2022-12-29T04:28:50.595Z,81.44
2022-12-29T04:33:56.051Z,82.51
2022-12-29T04:38:59.103Z,82.69
2022-12-29T04:44:01.951Z,83.94
2022-12-29T04:49:06.481Z,84.20
2022-12-29T04:54:10.414Z,84.08
2022-12-29T04:59:13.301Z,83.82
2022-12-29T05:04:17.782Z,84.47
2022-12-29T05:09:20.688Z,83.83
2022-12-29T05:14:23.696Z,85.58
2022-12-29T05:19:28.207Z,85.36
2022-12-29T05:24:31.759Z,85.01
2022-12-29T05:29:34.656Z,85.06
2022-12-29T05:34:39.148Z,85.09
2022-12-29T05:39:42.042Z,83.20
2022-12-29T05:44:44.896Z,85.20
2022-12-29T05:49:49.436Z,85.00
2022-12-29T05:54:52.389Z,84.96
2022-12-29T05:59:55.216Z,83.59
2022-12-29T06:04:59.706Z,84.75
2022-12-29T06:10:02.673Z,84.80
2022-12-29T06:15:06.011Z,87.06
2022-12-29T06:20:11.779Z,87.99
2022-12-29T06:25:14.811Z,88.89
2022-12-29T06:30:17.789Z,89.94
2022-12-29T06:35:22.524Z,88.81
2022-12-29T06:40:25.394Z,84.83
2022-12-29T06:45:28.315Z,84.34
2022-12-29T06:50:32.866Z,85.56
2022-12-29T06:55:35.765Z,86.96
2022-12-29T07:00:38.597Z,87.88
2022-12-29T07:05:43.166Z,87.61
2022-12-29T07:10:46.042Z,89.04
2022-12-29T07:15:48.894Z,89.90
2022-12-29T07:20:53.401Z,91.11
2022-12-29T07:26:00.877Z,92.32
2022-12-29T07:31:03.801Z,91.63
2022-12-29T07:36:08.957Z,90.62
2022-12-29T07:41:11.845Z,91.88
2022-12-29T07:46:56.512Z,91.64
2022-12-29T07:51:39.986Z,91.63
2022-12-29T07:56:42.813Z,91.75
2022-12-29T08:01:45.724Z,92.25
2022-12-29T08:06:50.304Z,93.38
2022-12-29T08:11:53.174Z,94.55
2022-12-29T08:16:56.060Z,92.97
2022-12-29T08:22:01.556Z,94.16
2022-12-29T08:27:13.165Z,94.33
2022-12-29T08:32:20.827Z,94.85
2022-12-29T08:37:30.885Z,95.18
2022-12-29T08:42:34.706Z,94.38
2022-12-29T08:47:37.700Z,94.29
2022-12-29T08:52:42.218Z,94.70
2022-12-29T08:57:45.065Z,96.17
2022-12-29T09:02:48.063Z,97.19
2022-12-29T09:07:53.607Z,95.73
2022-12-29T09:12:56.463Z,95.76
2022-12-29T09:17:59.350Z,96.59
2022-12-29T09:23:03.842Z,96.74
2022-12-29T09:28:06.700Z,96.92
2022-12-29T09:33:09.644Z,96.55
2022-12-29T09:38:14.135Z,95.38
2022-12-29T09:43:26.276Z,96.88
2022-12-29T09:48:31.076Z,96.26
2022-12-29T09:53:38.162Z,96.78
2022-12-29T09:58:43.568Z,97.58
2022-12-29T10:03:48.647Z,96.07
2022-12-29T10:08:59.261Z,97.34
2022-12-29T10:14:15.722Z,98.87
2022-12-29T10:19:32.761Z,97.78
2022-12-29T10:24:39.323Z,98.51
2022-12-29T10:29:44.224Z,97.27
2022-12-29T10:34:49.083Z,97.90
2022-12-29T10:39:54.265Z,97.89
2022-12-29T10:44:58.235Z,99.00
2022-12-29T10:50:01.856Z,99.95
2022-12-29T10:55:09.950Z,100.00
2022-12-29T11:00:14.446Z,100.00
2022-12-29T11:05:21.988Z,100.00
2022-12-29T11:10:36.050Z,100.00
2022-12-29T11:15:40.919Z,100.00
2022-12-29T11:20:43.769Z,100.00
2022-12-29T11:25:48.326Z,100.00
2022-12-29T11:31:00.578Z,100.00
2022-12-29T11:36:06.050Z,100.00
2022-12-29T11:41:13.644Z,100.00
2022-12-29T11:46:18.648Z,100.00
2022-12-29T11:51:25.614Z,100.00
2022-12-29T11:56:40.844Z,100.00
2022-12-29T12:01:45.326Z,100.00
2022-12-29T12:06:50.153Z,100.00
2022-12-29T12:11:56.480Z,100.00
2022-12-29T12:17:01.856Z,100.00
2022-12-29T12:22:09.669Z,100.00
2022-12-29T12:27:17.079Z,100.00
2022-12-29T12:32:22.786Z,100.00
2022-12-29T12:37:49.973Z,100.00
2022-12-29T12:42:57.622Z,100.00
2022-12-29T12:48:07.619Z,100.00
2022-12-29T12:53:24.865Z,100.00
2022-12-29T12:58:33.273Z,100.00
2022-12-29T13:03:46.354Z,100.00
2022-12-29T13:09:00.614Z,100.00
2022-12-29T13:14:16.438Z,100.00
2022-12-29T13:19:22.552Z,100.00
2022-12-29T13:24:30.486Z,100.00
2022-12-29T13:29:37.912Z,100.00
2022-12-29T13:34:49.169Z,100.00
2022-12-29T13:39:54.279Z,100.00
2022-12-29T13:45:01.376Z,100.00
2022-12-29T13:50:05.478Z,100.00
2022-12-29T13:55:21.831Z,100.00
2022-12-29T14:00:27.907Z,100.00
2022-12-29T14:05:32.001Z,100.00
2022-12-29T14:10:35.598Z,100.00
2022-12-29T14:15:42.504Z,100.00
2022-12-29T14:20:53.608Z,100.00
2022-12-29T14:26:00.830Z,100.00
2022-12-29T14:31:06.564Z,100.00
2022-12-29T14:36:21.828Z,100.00
2022-12-29T14:41:29.693Z,100.00
2022-12-29T14:46:48.358Z,100.00
2022-12-29T14:51:52.124Z,100.00
2022-12-29T14:56:58.768Z,100.00
2022-12-29T15:02:05.249Z,100.00
2022-12-29T15:07:10.808Z,100.00
2022-12-29T15:12:19.077Z,100.00
2022-12-29T15:17:28.857Z,100.00
2022-12-29T15:22:32.120Z,100.00
2022-12-29T15:27:34.968Z,100.00
2022-12-29T15:32:44.071Z,100.00
2022-12-29T15:37:46.926Z,100.00
2022-12-29T15:42:54.663Z,100.00
2022-12-29T15:48:00.301Z,100.00
2022-12-29T15:53:03.672Z,100.00
2022-12-29T15:58:07.839Z,100.00
2022-12-29T16:03:16.472Z,100.00
2022-12-29T16:08:33.853Z,100.00
2022-12-29T16:13:40.690Z,100.00
2022-12-29T16:18:45.614Z,100.00
2022-12-29T16:23:50.493Z,100.00
2022-12-29T16:28:56.089Z,100.00
2022-12-29T16:34:00.732Z,100.00
2022-12-29T16:39:36.268Z,100.00
2022-12-29T16:44:39.116Z,100.00
2022-12-29T16:49:44.962Z,100.00
2022-12-29T16:54:50.514Z,100.00
2022-12-29T16:59:54.017Z,100.00
2022-12-29T17:04:58.578Z,100.00
2022-12-29T17:10:01.485Z,100.00
2022-12-29T17:15:05.117Z,100.00
2022-12-29T17:20:15.811Z,100.00
2022-12-29T17:25:19.712Z,100.00
2022-12-29T17:30:27.118Z,100.00
2022-12-29T17:35:34.298Z,100.00
2022-12-29T17:40:37.144Z,100.00
2022-12-29T17:45:40.093Z,100.00
2022-12-29T17:50:45.084Z,100.00
2022-12-29T17:55:48.125Z,100.00
2022-12-29T18:00:52.117Z,100.00
2022-12-29T18:05:57.127Z,100.00
2022-12-29T18:11:00.139Z,100.00
2022-12-29T18:16:03.059Z,100.00
2022-12-29T18:21:07.698Z,100.00
2022-12-29T18:26:14.617Z,99.30
2022-12-29T18:31:18.762Z,98.03
2022-12-29T18:36:23.583Z,97.64
2022-12-29T18:41:26.869Z,95.91
2022-12-29T18:46:29.835Z,97.28
2022-12-29T18:51:34.431Z,99.04
2022-12-29T18:56:37.323Z,100.00
2022-12-29T19:01:40.682Z,100.00
2022-12-29T19:06:45.283Z,100.00
2022-12-29T19:11:48.203Z,100.00
2022-12-29T19:16:51.156Z,100.00
2022-12-29T19:21:55.650Z,100.00
2022-12-29T19:26:58.530Z,100.00
2022-12-29T19:32:01.447Z,100.00
2022-12-29T19:37:05.978Z,99.50
2022-12-29T19:42:08.851Z,99.62
2022-12-29T19:47:11.915Z,99.95
2022-12-29T19:52:16.465Z,100.00
2022-12-29T19:57:19.535Z,100.00
2022-12-29T20:02:23.854Z,100.00
2022-12-29T20:07:28.428Z,100.00
2022-12-29T20:12:31.313Z,100.00
2022-12-29T20:18:11.059Z,100.00
2022-12-29T20:22:58.716Z,100.00
2022-12-29T20:28:01.561Z,100.00
2022-12-29T20:33:07.989Z,100.00
2022-12-29T20:38:13.326Z,100.00
2022-12-29T20:43:16.276Z,100.00
2022-12-29T20:48:19.157Z,100.00
2022-12-29T20:53:23.637Z,100.00
2022-12-29T20:58:26.532Z,100.00
2022-12-29T21:03:29.521Z,99.56
2022-12-29T21:08:34.035Z,100.00
2022-12-29T21:13:36.923Z,100.00
2022-12-29T21:18:40.007Z,100.00
2022-12-29T21:23:44.598Z,100.00
2022-12-29T21:28:47.715Z,100.00
2022-12-29T21:33:51.440Z,100.00
2022-12-29T21:38:56.481Z,100.00
2022-12-29T21:44:00.151Z,100.00
2022-12-29T21:49:03.026Z,100.00
2022-12-29T21:54:08.311Z,100.00
2022-12-29T21:59:11.447Z,100.00
2022-12-29T22:04:14.634Z,100.00
2022-12-29T22:09:19.159Z,100.00
2022-12-29T22:14:21.997Z,100.00
2022-12-29T22:19:24.906Z,100.00
2022-12-29T22:24:29.429Z,100.00
2022-12-29T22:29:32.274Z,100.00
2022-12-29T22:34:35.121Z,100.00
2022-12-29T22:39:39.600Z,100.00
2022-12-29T22:44:42.441Z,100.00
2022-12-29T22:49:45.287Z,100.00
2022-12-29T22:54:49.779Z,100.00
2022-12-29T22:59:52.689Z,100.00
2022-12-29T23:05:04.502Z,100.00
2022-12-29T23:10:10.224Z,100.00
2022-12-29T23:15:13.077Z,100.00
2022-12-29T23:20:15.928Z,99.53
2022-12-29T23:25:20.499Z,87.42
2022-12-29T23:30:23.392Z,92.47
2022-12-29T23:35:26.289Z,96.17
2022-12-29T23:40:35.967Z,98.22
2022-12-29T23:45:39.284Z,99.34
2022-12-29T23:50:42.520Z,100.00
2022-12-29T23:55:52.977Z,100.00
